sensor_id;sensor_type;location;lat;lon;timestamp;P1;durP1;ratioP1;P2;durP2;ratioP2
12369;SDS011;6249;52.128;9.986;2022-07-01T00:00:29;10.07;;;6.90;;
12369;SDS011;6249;52.128;9.986;2022-07-01T00:03:52;9.10;;;6.20;;
12369;SDS011;6249;52.128;9.986;2022-07-01T00:07:19;9.83;;;6.60;;
12369;SDS011;6249;52.128;9.986;2022-07-01T00:10:42;10.50;;;7.40;;
12369;SDS011;6249;52.128;9.986;2022-07-01T00:14:02;10.87;;;7.10;;
12369;SDS011;6249;52.128;9.986;2022-07-01T00:17:23;8.20;;;6.97;;
12369;SDS011;6249;52.128;9.986;2022-07-01T00:20:44;13.40;;;9.70;;
12369;SDS011;6249;52.128;9.986;2022-07-01T00:24:04;15.50;;;10.77;;
12369;SDS011;6249;52.128;9.986;2022-07-01T00:27:26;13.23;;;9.27;;
12369;SDS011;6249;52.128;9.986;2022-07-01T00:30:49;13.27;;;10.13;;
12369;SDS011;6249;52.128;9.986;2022-07-01T00:34:12;14.60;;;10.70;;
12369;SDS011;6249;52.128;9.986;2022-07-01T00:37:33;11.17;;;9.83;;
12369;SDS011;6249;52.128;9.986;2022-07-01T00:40:54;13.50;;;11.57;;
12369;SDS011;6249;52.128;9.986;2022-07-01T00:44:18;20.80;;;11.20;;
12369;SDS011;6249;52.128;9.986;2022-07-01T00:47:40;14.43;;;11.00;;
12369;SDS011;6249;52.128;9.986;2022-07-01T00:51:01;13.00;;;10.40;;
12369;SDS011;6249;52.128;9.986;2022-07-01T00:54:22;14.10;;;10.10;;
12369;SDS011;6249;52.128;9.986;2022-07-01T00:57:43;15.77;;;11.20;;
12369;SDS011;6249;52.128;9.986;2022-07-01T01:01:04;15.23;;;10.80;;
12369;SDS011;6249;52.128;9.986;2022-07-01T01:04:25;18.03;;;11.30;;
12369;SDS011;6249;52.128;9.986;2022-07-01T01:07:46;18.30;;;11.80;;
12369;SDS011;6249;52.128;9.986;2022-07-01T01:11:07;13.00;;;9.87;;
12369;SDS011;6249;52.128;9.986;2022-07-01T01:14:28;15.20;;;11.10;;
12369;SDS011;6249;52.128;9.986;2022-07-01T01:17:51;13.30;;;10.83;;
12369;SDS011;6249;52.128;9.986;2022-07-01T01:21:12;14.20;;;11.20;;
12369;SDS011;6249;52.128;9.986;2022-07-01T01:24:33;13.80;;;11.43;;
12369;SDS011;6249;52.128;9.986;2022-07-01T01:27:56;16.70;;;13.30;;
12369;SDS011;6249;52.128;9.986;2022-07-01T01:31:17;14.70;;;11.30;;
12369;SDS011;6249;52.128;9.986;2022-07-01T01:34:50;17.40;;;11.00;;
12369;SDS011;6249;52.128;9.986;2022-07-01T01:38:11;13.33;;;11.03;;
12369;SDS011;6249;52.128;9.986;2022-07-01T01:41:32;12.87;;;10.33;;
12369;SDS011;6249;52.128;9.986;2022-07-01T01:44:55;20.73;;;12.00;;
12369;SDS011;6249;52.128;9.986;2022-07-01T01:48:15;16.17;;;12.37;;
12369;SDS011;6249;52.128;9.986;2022-07-01T01:51:38;16.13;;;12.57;;
12369;SDS011;6249;52.128;9.986;2022-07-01T01:54:59;16.13;;;9.77;;
12369;SDS011;6249;52.128;9.986;2022-07-01T01:58:23;14.27;;;11.00;;
12369;SDS011;6249;52.128;9.986;2022-07-01T02:01:44;14.20;;;10.43;;
12369;SDS011;6249;52.128;9.986;2022-07-01T02:05:08;10.73;;;8.67;;
12369;SDS011;6249;52.128;9.986;2022-07-01T02:08:32;9.93;;;7.70;;
12369;SDS011;6249;52.128;9.986;2022-07-01T02:11:53;10.10;;;6.27;;
12369;SDS011;6249;52.128;9.986;2022-07-01T02:15:16;7.00;;;5.30;;
12369;SDS011;6249;52.128;9.986;2022-07-01T02:18:41;8.53;;;5.50;;
12369;SDS011;6249;52.128;9.986;2022-07-01T02:22:01;9.43;;;5.43;;
12369;SDS011;6249;52.128;9.986;2022-07-01T02:25:22;6.20;;;4.60;;
12369;SDS011;6249;52.128;9.986;2022-07-01T02:28:43;6.07;;;4.00;;
12369;SDS011;6249;52.128;9.986;2022-07-01T02:32:06;7.83;;;4.10;;
12369;SDS011;6249;52.128;9.986;2022-07-01T02:35:26;6.00;;;3.90;;
12369;SDS011;6249;52.128;9.986;2022-07-01T02:38:50;10.80;;;3.50;;
12369;SDS011;6249;52.128;9.986;2022-07-01T02:42:13;7.00;;;2.90;;
12369;SDS011;6249;52.128;9.986;2022-07-01T02:45:46;6.53;;;2.10;;
12369;SDS011;6249;52.128;9.986;2022-07-01T02:49:09;3.63;;;1.60;;
12369;SDS011;6249;52.128;9.986;2022-07-01T02:52:29;2.50;;;1.40;;
12369;SDS011;6249;52.128;9.986;2022-07-01T02:55:50;4.43;;;1.40;;
12369;SDS011;6249;52.128;9.986;2022-07-01T02:59:11;2.93;;;1.17;;
12369;SDS011;6249;52.128;9.986;2022-07-01T03:02:34;3.13;;;1.20;;
12369;SDS011;6249;52.128;9.986;2022-07-01T03:05:57;2.47;;;1.00;;
12369;SDS011;6249;52.128;9.986;2022-07-01T03:09:18;2.97;;;1.20;;
12369;SDS011;6249;52.128;9.986;2022-07-01T03:12:39;3.10;;;1.43;;
12369;SDS011;6249;52.128;9.986;2022-07-01T03:16:00;3.60;;;1.37;;
12369;SDS011;6249;52.128;9.986;2022-07-01T03:19:23;3.10;;;1.23;;
12369;SDS011;6249;52.128;9.986;2022-07-01T03:22:44;2.90;;;1.40;;
12369;SDS011;6249;52.128;9.986;2022-07-01T03:26:10;3.03;;;1.57;;
12369;SDS011;6249;52.128;9.986;2022-07-01T03:29:33;3.37;;;1.30;;
12369;SDS011;6249;52.128;9.986;2022-07-01T03:32:53;4.40;;;1.40;;
12369;SDS011;6249;52.128;9.986;2022-07-01T03:36:14;6.53;;;1.97;;
12369;SDS011;6249;52.128;9.986;2022-07-01T03:39:35;3.80;;;2.30;;
12369;SDS011;6249;52.128;9.986;2022-07-01T03:42:56;3.93;;;1.60;;
12369;SDS011;6249;52.128;9.986;2022-07-01T03:46:19;4.80;;;2.00;;
12369;SDS011;6249;52.128;9.986;2022-07-01T03:49:40;3.90;;;2.03;;
12369;SDS011;6249;52.128;9.986;2022-07-01T03:53:01;6.03;;;2.30;;
12369;SDS011;6249;52.128;9.986;2022-07-01T03:56:40;7.07;;;2.00;;
12369;SDS011;6249;52.128;9.986;2022-07-01T04:00:00;4.77;;;2.00;;
12369;SDS011;6249;52.128;9.986;2022-07-01T04:03:24;6.77;;;2.30;;
12369;SDS011;6249;52.128;9.986;2022-07-01T04:06:47;4.97;;;2.37;;
12369;SDS011;6249;52.128;9.986;2022-07-01T04:10:10;5.33;;;2.63;;
12369;SDS011;6249;52.128;9.986;2022-07-01T04:13:32;6.83;;;2.80;;
12369;SDS011;6249;52.128;9.986;2022-07-01T04:16:57;4.40;;;2.10;;
12369;SDS011;6249;52.128;9.986;2022-07-01T04:20:18;6.93;;;2.33;;
12369;SDS011;6249;52.128;9.986;2022-07-01T04:23:38;5.97;;;2.23;;
12369;SDS011;6249;52.128;9.986;2022-07-01T04:26:59;4.57;;;2.60;;
12369;SDS011;6249;52.128;9.986;2022-07-01T04:30:21;4.90;;;2.07;;
12369;SDS011;6249;52.128;9.986;2022-07-01T04:33:41;3.83;;;2.10;;
12369;SDS011;6249;52.128;9.986;2022-07-01T04:37:05;4.53;;;2.23;;
12369;SDS011;6249;52.128;9.986;2022-07-01T04:40:27;4.23;;;1.93;;
12369;SDS011;6249;52.128;9.986;2022-07-01T04:43:50;5.97;;;2.10;;
12369;SDS011;6249;52.128;9.986;2022-07-01T04:47:11;3.73;;;2.10;;
12369;SDS011;6249;52.128;9.986;2022-07-01T04:50:34;6.23;;;1.70;;
12369;SDS011;6249;52.128;9.986;2022-07-01T04:53:54;3.90;;;2.10;;
12369;SDS011;6249;52.128;9.986;2022-07-01T04:57:15;4.83;;;1.77;;
12369;SDS011;6249;52.128;9.986;2022-07-01T05:00:38;5.83;;;2.27;;
12369;SDS011;6249;52.128;9.986;2022-07-01T05:04:01;5.70;;;2.00;;
12369;SDS011;6249;52.128;9.986;2022-07-01T05:07:24;3.90;;;1.73;;
12369;SDS011;6249;52.128;9.986;2022-07-01T05:10:48;7.00;;;2.33;;
12369;SDS011;6249;52.128;9.986;2022-07-01T05:14:11;15.40;;;8.07;;
12369;SDS011;6249;52.128;9.986;2022-07-01T05:17:32;5.07;;;2.40;;
12369;SDS011;6249;52.128;9.986;2022-07-01T05:21:12;8.90;;;2.70;;
12369;SDS011;6249;52.128;9.986;2022-07-01T05:24:51;4.77;;;2.20;;
12369;SDS011;6249;52.128;9.986;2022-07-01T05:28:12;12.50;;;2.70;;
12369;SDS011;6249;52.128;9.986;2022-07-01T05:31:33;10.40;;;3.87;;
12369;SDS011;6249;52.128;9.986;2022-07-01T05:34:53;8.93;;;3.40;;
12369;SDS011;6249;52.128;9.986;2022-07-01T05:38:17;9.23;;;3.90;;
12369;SDS011;6249;52.128;9.986;2022-07-01T05:41:37;12.60;;;3.63;;
12369;SDS011;6249;52.128;9.986;2022-07-01T05:45:00;4.80;;;2.87;;
12369;SDS011;6249;52.128;9.986;2022-07-01T05:48:21;8.43;;;3.00;;
12369;SDS011;6249;52.128;9.986;2022-07-01T05:51:42;5.27;;;2.63;;
12369;SDS011;6249;52.128;9.986;2022-07-01T05:55:03;4.27;;;2.23;;
12369;SDS011;6249;52.128;9.986;2022-07-01T05:58:23;5.13;;;2.17;;
12369;SDS011;6249;52.128;9.986;2022-07-01T06:01:44;7.30;;;2.50;;
12369;SDS011;6249;52.128;9.986;2022-07-01T06:05:06;4.53;;;2.50;;
12369;SDS011;6249;52.128;9.986;2022-07-01T06:08:27;3.77;;;2.07;;
12369;SDS011;6249;52.128;9.986;2022-07-01T06:11:48;6.27;;;3.17;;
12369;SDS011;6249;52.128;9.986;2022-07-01T06:15:09;7.37;;;2.80;;
12369;SDS011;6249;52.128;9.986;2022-07-01T06:18:32;9.20;;;3.90;;
12369;SDS011;6249;52.128;9.986;2022-07-01T06:21:52;5.00;;;2.77;;
12369;SDS011;6249;52.128;9.986;2022-07-01T06:25:13;5.90;;;3.60;;
12369;SDS011;6249;52.128;9.986;2022-07-01T06:28:34;5.30;;;2.63;;
12369;SDS011;6249;52.128;9.986;2022-07-01T06:31:57;4.80;;;3.03;;
12369;SDS011;6249;52.128;9.986;2022-07-01T06:35:17;5.80;;;3.10;;
12369;SDS011;6249;52.128;9.986;2022-07-01T06:38:40;6.20;;;2.87;;
12369;SDS011;6249;52.128;9.986;2022-07-01T06:42:01;4.20;;;2.50;;
12369;SDS011;6249;52.128;9.986;2022-07-01T06:45:22;4.40;;;3.00;;
12369;SDS011;6249;52.128;9.986;2022-07-01T06:48:42;4.73;;;2.80;;
12369;SDS011;6249;52.128;9.986;2022-07-01T06:52:05;4.80;;;2.70;;
12369;SDS011;6249;52.128;9.986;2022-07-01T06:55:26;4.60;;;2.80;;
12369;SDS011;6249;52.128;9.986;2022-07-01T06:58:47;4.20;;;2.90;;
12369;SDS011;6249;52.128;9.986;2022-07-01T07:02:10;5.50;;;3.43;;
12369;SDS011;6249;52.128;9.986;2022-07-01T07:05:30;9.53;;;6.30;;
12369;SDS011;6249;52.128;9.986;2022-07-01T07:08:53;5.80;;;4.03;;
12369;SDS011;6249;52.128;9.986;2022-07-01T07:12:16;6.67;;;4.37;;
12369;SDS011;6249;52.128;9.986;2022-07-01T07:15:39;9.40;;;4.60;;
12369;SDS011;6249;52.128;9.986;2022-07-01T07:19:01;8.60;;;4.80;;
12369;SDS011;6249;52.128;9.986;2022-07-01T07:22:22;7.47;;;4.60;;
12369;SDS011;6249;52.128;9.986;2022-07-01T07:25:45;8.90;;;5.47;;
12369;SDS011;6249;52.128;9.986;2022-07-01T07:29:06;11.40;;;6.70;;
12369;SDS011;6249;52.128;9.986;2022-07-01T07:32:26;9.33;;;6.13;;
12369;SDS011;6249;52.128;9.986;2022-07-01T07:35:47;8.73;;;6.50;;
12369;SDS011;6249;52.128;9.986;2022-07-01T07:39:08;12.63;;;7.70;;
12369;SDS011;6249;52.128;9.986;2022-07-01T07:42:28;12.60;;;8.03;;
12369;SDS011;6249;52.128;9.986;2022-07-01T07:45:49;15.27;;;10.47;;
12369;SDS011;6249;52.128;9.986;2022-07-01T07:49:12;10.90;;;7.83;;
12369;SDS011;6249;52.128;9.986;2022-07-01T07:52:35;19.20;;;11.90;;
12369;SDS011;6249;52.128;9.986;2022-07-01T07:55:55;11.87;;;8.37;;
12369;SDS011;6249;52.128;9.986;2022-07-01T07:59:16;12.37;;;7.03;;
12369;SDS011;6249;52.128;9.986;2022-07-01T08:02:37;12.17;;;8.70;;
12369;SDS011;6249;52.128;9.986;2022-07-01T08:05:59;11.40;;;7.83;;
12369;SDS011;6249;52.128;9.986;2022-07-01T08:09:22;12.20;;;6.90;;
12369;SDS011;6249;52.128;9.986;2022-07-01T08:12:42;11.10;;;7.17;;
12369;SDS011;6249;52.128;9.986;2022-07-01T08:16:03;11.70;;;8.03;;
12369;SDS011;6249;52.128;9.986;2022-07-01T08:19:24;13.30;;;7.47;;
12369;SDS011;6249;52.128;9.986;2022-07-01T08:22:47;13.23;;;7.80;;
12369;SDS011;6249;52.128;9.986;2022-07-01T08:26:07;11.23;;;8.33;;
12369;SDS011;6249;52.128;9.986;2022-07-01T08:29:28;12.80;;;8.80;;
12369;SDS011;6249;52.128;9.986;2022-07-01T08:32:51;14.63;;;10.27;;
12369;SDS011;6249;52.128;9.986;2022-07-01T08:36:12;14.27;;;8.90;;
12369;SDS011;6249;52.128;9.986;2022-07-01T08:39:34;11.33;;;7.60;;
12369;SDS011;6249;52.128;9.986;2022-07-01T08:43:01;9.80;;;4.70;;
12369;SDS011;6249;52.128;9.986;2022-07-01T08:46:23;7.20;;;4.20;;
12369;SDS011;6249;52.128;9.986;2022-07-01T08:49:48;8.10;;;3.50;;
12369;SDS011;6249;52.128;9.986;2022-07-01T08:53:10;3.90;;;3.03;;
12369;SDS011;6249;52.128;9.986;2022-07-01T08:56:33;5.10;;;3.23;;
12369;SDS011;6249;52.128;9.986;2022-07-01T09:00:05;6.57;;;4.57;;
12369;SDS011;6249;52.128;9.986;2022-07-01T09:03:29;6.90;;;4.50;;
12369;SDS011;6249;52.128;9.986;2022-07-01T09:06:53;7.23;;;4.77;;
12369;SDS011;6249;52.128;9.986;2022-07-01T09:10:23;11.93;;;6.30;;
12369;SDS011;6249;52.128;9.986;2022-07-01T09:13:44;8.90;;;5.20;;
12369;SDS011;6249;52.128;9.986;2022-07-01T09:17:26;7.90;;;5.73;;
12369;SDS011;6249;52.128;9.986;2022-07-01T09:20:47;9.50;;;6.60;;
12369;SDS011;6249;52.128;9.986;2022-07-01T09:24:24;9.60;;;6.80;;
12369;SDS011;6249;52.128;9.986;2022-07-01T09:28:07;9.37;;;6.13;;
12369;SDS011;6249;52.128;9.986;2022-07-01T09:31:34;7.93;;;5.30;;
12369;SDS011;6249;52.128;9.986;2022-07-01T09:34:55;7.00;;;5.40;;
12369;SDS011;6249;52.128;9.986;2022-07-01T09:38:19;11.07;;;6.37;;
12369;SDS011;6249;52.128;9.986;2022-07-01T09:41:40;9.60;;;6.07;;
12369;SDS011;6249;52.128;9.986;2022-07-01T09:45:04;11.67;;;5.77;;
12369;SDS011;6249;52.128;9.986;2022-07-01T09:51:56;8.80;;;5.47;;
12369;SDS011;6249;52.128;9.986;2022-07-01T09:55:17;8.67;;;6.00;;
12369;SDS011;6249;52.128;9.986;2022-07-01T09:58:41;10.60;;;5.03;;
12369;SDS011;6249;52.128;9.986;2022-07-01T10:02:09;8.90;;;6.10;;
12369;SDS011;6249;52.128;9.986;2022-07-01T10:05:30;8.80;;;5.60;;
12369;SDS011;6249;52.128;9.986;2022-07-01T10:12:30;9.53;;;6.00;;
12369;SDS011;6249;52.128;9.986;2022-07-01T10:16:00;9.00;;;6.40;;
12369;SDS011;6249;52.128;9.986;2022-07-01T10:19:26;8.17;;;6.60;;
12369;SDS011;6249;52.128;9.986;2022-07-01T10:22:53;13.43;;;6.30;;
12369;SDS011;6249;52.128;9.986;2022-07-01T10:26:28;10.50;;;6.27;;
12369;SDS011;6249;52.128;9.986;2022-07-01T10:29:49;10.77;;;7.60;;
12369;SDS011;6249;52.128;9.986;2022-07-01T10:37:05;13.50;;;9.43;;
12369;SDS011;6249;52.128;9.986;2022-07-01T10:40:39;11.10;;;8.77;;
12369;SDS011;6249;52.128;9.986;2022-07-01T10:44:02;14.20;;;10.80;;
12369;SDS011;6249;52.128;9.986;2022-07-01T10:47:25;16.60;;;12.03;;
12369;SDS011;6249;52.128;9.986;2022-07-01T10:50:46;17.40;;;12.60;;
12369;SDS011;6249;52.128;9.986;2022-07-01T10:54:10;21.50;;;14.93;;
12369;SDS011;6249;52.128;9.986;2022-07-01T10:57:34;19.07;;;14.23;;
12369;SDS011;6249;52.128;9.986;2022-07-01T11:00:59;17.73;;;13.60;;
12369;SDS011;6249;52.128;9.986;2022-07-01T11:04:36;18.03;;;13.00;;
12369;SDS011;6249;52.128;9.986;2022-07-01T11:07:57;16.97;;;13.07;;
12369;SDS011;6249;52.128;9.986;2022-07-01T11:11:21;24.00;;;13.93;;
12369;SDS011;6249;52.128;9.986;2022-07-01T11:14:42;18.37;;;13.53;;
12369;SDS011;6249;52.128;9.986;2022-07-01T11:18:03;16.80;;;12.50;;
12369;SDS011;6249;52.128;9.986;2022-07-01T11:21:24;15.10;;;11.70;;
12369;SDS011;6249;52.128;9.986;2022-07-01T11:24:45;18.33;;;11.17;;
12369;SDS011;6249;52.128;9.986;2022-07-01T11:28:11;17.60;;;12.10;;
12369;SDS011;6249;52.128;9.986;2022-07-01T11:31:34;13.83;;;9.47;;
12369;SDS011;6249;52.128;9.986;2022-07-01T11:34:55;13.20;;;10.40;;
12369;SDS011;6249;52.128;9.986;2022-07-01T11:38:17;15.73;;;11.53;;
12369;SDS011;6249;52.128;9.986;2022-07-01T11:42:04;18.73;;;11.10;;
12369;SDS011;6249;52.128;9.986;2022-07-01T11:45:27;17.50;;;12.90;;
12369;SDS011;6249;52.128;9.986;2022-07-01T11:48:50;15.57;;;12.60;;
12369;SDS011;6249;52.128;9.986;2022-07-01T11:52:11;13.83;;;11.00;;
12369;SDS011;6249;52.128;9.986;2022-07-01T11:55:32;17.93;;;12.33;;
12369;SDS011;6249;52.128;9.986;2022-07-01T11:58:53;18.10;;;12.03;;
12369;SDS011;6249;52.128;9.986;2022-07-01T12:02:15;14.17;;;11.40;;
12369;SDS011;6249;52.128;9.986;2022-07-01T12:05:38;14.50;;;11.60;;
12369;SDS011;6249;52.128;9.986;2022-07-01T12:09:01;20.37;;;12.40;;
12369;SDS011;6249;52.128;9.986;2022-07-01T12:12:22;15.83;;;11.40;;
12369;SDS011;6249;52.128;9.986;2022-07-01T12:15:47;18.77;;;11.03;;
12369;SDS011;6249;52.128;9.986;2022-07-01T12:19:08;14.87;;;11.30;;
12369;SDS011;6249;52.128;9.986;2022-07-01T12:22:29;14.70;;;12.33;;
12369;SDS011;6249;52.128;9.986;2022-07-01T12:25:50;17.60;;;12.10;;
12369;SDS011;6249;52.128;9.986;2022-07-01T12:29:11;26.00;;;19.23;;
12369;SDS011;6249;52.128;9.986;2022-07-01T12:32:34;15.40;;;10.87;;
12369;SDS011;6249;52.128;9.986;2022-07-01T12:36:02;13.80;;;11.40;;
12369;SDS011;6249;52.128;9.986;2022-07-01T12:39:27;14.17;;;10.90;;
12369;SDS011;6249;52.128;9.986;2022-07-01T12:42:50;17.53;;;10.47;;
12369;SDS011;6249;52.128;9.986;2022-07-01T12:46:13;12.90;;;10.83;;
12369;SDS011;6249;52.128;9.986;2022-07-01T12:49:48;14.17;;;10.63;;
12369;SDS011;6249;52.128;9.986;2022-07-01T12:56:37;16.00;;;9.17;;
12369;SDS011;6249;52.128;9.986;2022-07-01T12:59:59;14.60;;;10.00;;
12369;SDS011;6249;52.128;9.986;2022-07-01T13:03:26;16.40;;;9.33;;
12369;SDS011;6249;52.128;9.986;2022-07-01T13:06:50;15.17;;;10.67;;
12369;SDS011;6249;52.128;9.986;2022-07-01T13:10:11;11.87;;;9.70;;
12369;SDS011;6249;52.128;9.986;2022-07-01T13:13:33;12.50;;;9.20;;
12369;SDS011;6249;52.128;9.986;2022-07-01T13:16:53;11.13;;;7.53;;
12369;SDS011;6249;52.128;9.986;2022-07-01T13:20:14;11.13;;;8.60;;
12369;SDS011;6249;52.128;9.986;2022-07-01T13:23:37;9.57;;;7.77;;
12369;SDS011;6249;52.128;9.986;2022-07-01T13:27:00;14.17;;;8.33;;
12369;SDS011;6249;52.128;9.986;2022-07-01T13:30:21;9.00;;;7.40;;
12369;SDS011;6249;52.128;9.986;2022-07-01T13:33:44;13.97;;;7.73;;
12369;SDS011;6249;52.128;9.986;2022-07-01T13:37:04;9.77;;;7.20;;
12369;SDS011;6249;52.128;9.986;2022-07-01T13:40:32;15.43;;;7.17;;
12369;SDS011;6249;52.128;9.986;2022-07-01T13:43:55;11.93;;;7.23;;
12369;SDS011;6249;52.128;9.986;2022-07-01T13:47:16;11.33;;;7.27;;
12369;SDS011;6249;52.128;9.986;2022-07-01T13:50:37;10.43;;;7.47;;
12369;SDS011;6249;52.128;9.986;2022-07-01T13:54:00;14.27;;;7.50;;
12369;SDS011;6249;52.128;9.986;2022-07-01T13:57:21;10.63;;;8.60;;
12369;SDS011;6249;52.128;9.986;2022-07-01T14:00:41;12.07;;;8.20;;
12369;SDS011;6249;52.128;9.986;2022-07-01T14:04:02;9.30;;;7.20;;
12369;SDS011;6249;52.128;9.986;2022-07-01T14:07:23;12.33;;;7.77;;
12369;SDS011;6249;52.128;9.986;2022-07-01T14:10:46;13.23;;;7.83;;
12369;SDS011;6249;52.128;9.986;2022-07-01T14:14:09;11.43;;;8.57;;
12369;SDS011;6249;52.128;9.986;2022-07-01T14:17:30;15.30;;;9.00;;
12369;SDS011;6249;52.128;9.986;2022-07-01T14:20:51;10.23;;;7.50;;
12369;SDS011;6249;52.128;9.986;2022-07-01T14:24:12;11.10;;;8.17;;
12369;SDS011;6249;52.128;9.986;2022-07-01T14:27:34;8.50;;;7.30;;
12369;SDS011;6249;52.128;9.986;2022-07-01T14:30:55;20.73;;;8.73;;
12369;SDS011;6249;52.128;9.986;2022-07-01T14:34:16;12.33;;;8.80;;
12369;SDS011;6249;52.128;9.986;2022-07-01T14:37:37;13.03;;;10.20;;
12369;SDS011;6249;52.128;9.986;2022-07-01T14:40:59;15.60;;;11.33;;
12369;SDS011;6249;52.128;9.986;2022-07-01T14:44:22;14.70;;;10.17;;
12369;SDS011;6249;52.128;9.986;2022-07-01T14:47:44;14.03;;;11.43;;
12369;SDS011;6249;52.128;9.986;2022-07-01T14:51:05;16.83;;;10.70;;
12369;SDS011;6249;52.128;9.986;2022-07-01T14:54:26;10.83;;;9.40;;
12369;SDS011;6249;52.128;9.986;2022-07-01T14:57:47;8.70;;;7.60;;
12369;SDS011;6249;52.128;9.986;2022-07-01T15:01:07;11.47;;;6.83;;
12369;SDS011;6249;52.128;9.986;2022-07-01T15:04:31;10.30;;;6.00;;
12369;SDS011;6249;52.128;9.986;2022-07-01T15:07:54;9.50;;;6.37;;
12369;SDS011;6249;52.128;9.986;2022-07-01T15:11:14;7.63;;;4.90;;
12369;SDS011;6249;52.128;9.986;2022-07-01T15:14:40;10.57;;;6.00;;
12369;SDS011;6249;52.128;9.986;2022-07-01T15:18:00;14.07;;;4.83;;
12369;SDS011;6249;52.128;9.986;2022-07-01T15:21:21;6.67;;;3.60;;
12369;SDS011;6249;52.128;9.986;2022-07-01T15:24:42;6.00;;;3.60;;
12369;SDS011;6249;52.128;9.986;2022-07-01T15:28:03;7.93;;;3.77;;
12369;SDS011;6249;52.128;9.986;2022-07-01T15:31:29;7.00;;;3.80;;
12369;SDS011;6249;52.128;9.986;2022-07-01T15:34:50;6.33;;;3.90;;
12369;SDS011;6249;52.128;9.986;2022-07-01T15:38:11;7.70;;;3.70;;
12369;SDS011;6249;52.128;9.986;2022-07-01T15:41:32;6.73;;;4.43;;
12369;SDS011;6249;52.128;9.986;2022-07-01T15:44:53;10.67;;;5.70;;
12369;SDS011;6249;52.128;9.986;2022-07-01T15:48:14;9.73;;;4.70;;
12369;SDS011;6249;52.128;9.986;2022-07-01T15:51:37;9.97;;;4.63;;
12369;SDS011;6249;52.128;9.986;2022-07-01T15:54:57;7.63;;;4.67;;
12369;SDS011;6249;52.128;9.986;2022-07-01T15:58:21;6.20;;;4.70;;
12369;SDS011;6249;52.128;9.986;2022-07-01T16:01:41;8.87;;;4.43;;
12369;SDS011;6249;52.128;9.986;2022-07-01T16:05:05;9.87;;;4.53;;
12369;SDS011;6249;52.128;9.986;2022-07-01T16:08:28;9.67;;;4.60;;
12369;SDS011;6249;52.128;9.986;2022-07-01T16:11:55;7.87;;;4.73;;
12369;SDS011;6249;52.128;9.986;2022-07-01T16:15:19;6.77;;;4.60;;
12369;SDS011;6249;52.128;9.986;2022-07-01T16:18:41;6.67;;;4.10;;
12369;SDS011;6249;52.128;9.986;2022-07-01T16:22:04;6.77;;;4.27;;
12369;SDS011;6249;52.128;9.986;2022-07-01T16:25:28;7.67;;;4.60;;
12369;SDS011;6249;52.128;9.986;2022-07-01T16:28:51;7.43;;;3.87;;
12369;SDS011;6249;52.128;9.986;2022-07-01T16:32:12;7.30;;;4.90;;
12369;SDS011;6249;52.128;9.986;2022-07-01T16:35:48;10.27;;;5.07;;
12369;SDS011;6249;52.128;9.986;2022-07-01T16:39:11;9.33;;;5.07;;
12369;SDS011;6249;52.128;9.986;2022-07-01T16:42:36;7.27;;;4.80;;
12369;SDS011;6249;52.128;9.986;2022-07-01T16:46:03;6.60;;;4.57;;
12369;SDS011;6249;52.128;9.986;2022-07-01T16:49:28;9.47;;;5.07;;
12369;SDS011;6249;52.128;9.986;2022-07-01T16:52:53;8.03;;;4.90;;
12369;SDS011;6249;52.128;9.986;2022-07-01T16:56:21;7.70;;;5.23;;
12369;SDS011;6249;52.128;9.986;2022-07-01T16:59:44;7.73;;;5.30;;
12369;SDS011;6249;52.128;9.986;2022-07-01T17:03:04;6.83;;;5.17;;
12369;SDS011;6249;52.128;9.986;2022-07-01T17:06:27;8.83;;;5.63;;
12369;SDS011;6249;52.128;9.986;2022-07-01T17:09:51;9.23;;;5.97;;
12369;SDS011;6249;52.128;9.986;2022-07-01T17:13:14;8.37;;;5.30;;
12369;SDS011;6249;52.128;9.986;2022-07-01T17:16:37;11.90;;;5.20;;
12369;SDS011;6249;52.128;9.986;2022-07-01T17:19:58;8.63;;;5.37;;
12369;SDS011;6249;52.128;9.986;2022-07-01T17:30:51;9.37;;;5.20;;
12369;SDS011;6249;52.128;9.986;2022-07-01T17:34:14;9.33;;;4.90;;
12369;SDS011;6249;52.128;9.986;2022-07-01T17:37:36;6.53;;;5.17;;
12369;SDS011;6249;52.128;9.986;2022-07-01T17:40:59;6.73;;;4.90;;
12369;SDS011;6249;52.128;9.986;2022-07-01T17:44:23;7.57;;;5.53;;
12369;SDS011;6249;52.128;9.986;2022-07-01T17:47:45;7.70;;;5.47;;
12369;SDS011;6249;52.128;9.986;2022-07-01T17:51:05;10.60;;;5.70;;
12369;SDS011;6249;52.128;9.986;2022-07-01T17:54:33;14.93;;;6.30;;
12369;SDS011;6249;52.128;9.986;2022-07-01T17:57:57;10.53;;;5.90;;
12369;SDS011;6249;52.128;9.986;2022-07-01T18:01:20;6.90;;;5.10;;
12369;SDS011;6249;52.128;9.986;2022-07-01T18:04:42;8.47;;;5.10;;
12369;SDS011;6249;52.128;9.986;2022-07-01T18:08:03;12.07;;;5.27;;
12369;SDS011;6249;52.128;9.986;2022-07-01T18:11:32;9.03;;;5.37;;
12369;SDS011;6249;52.128;9.986;2022-07-01T18:18:57;9.87;;;5.87;;
12369;SDS011;6249;52.128;9.986;2022-07-01T18:22:31;10.03;;;5.90;;
12369;SDS011;6249;52.128;9.986;2022-07-01T18:26:05;7.23;;;5.37;;
12369;SDS011;6249;52.128;9.986;2022-07-01T18:29:29;10.20;;;5.50;;
12369;SDS011;6249;52.128;9.986;2022-07-01T18:33:00;8.90;;;6.10;;
12369;SDS011;6249;52.128;9.986;2022-07-01T18:36:25;8.80;;;6.07;;
12369;SDS011;6249;52.128;9.986;2022-07-01T18:39:54;9.13;;;6.47;;
12369;SDS011;6249;52.128;9.986;2022-07-01T18:43:15;8.70;;;6.47;;
12369;SDS011;6249;52.128;9.986;2022-07-01T18:46:35;9.77;;;6.10;;
12369;SDS011;6249;52.128;9.986;2022-07-01T18:49:56;10.80;;;6.70;;
12369;SDS011;6249;52.128;9.986;2022-07-01T18:53:16;6.73;;;5.57;;
12369;SDS011;6249;52.128;9.986;2022-07-01T18:56:37;10.00;;;6.23;;
12369;SDS011;6249;52.128;9.986;2022-07-01T19:00:00;11.97;;;6.60;;
12369;SDS011;6249;52.128;9.986;2022-07-01T19:03:24;10.00;;;6.23;;
12369;SDS011;6249;52.128;9.986;2022-07-01T19:06:44;9.43;;;6.73;;
12369;SDS011;6249;52.128;9.986;2022-07-01T19:10:06;11.93;;;6.87;;
12369;SDS011;6249;52.128;9.986;2022-07-01T19:13:27;23.20;;;15.10;;
12369;SDS011;6249;52.128;9.986;2022-07-01T19:16:50;10.53;;;7.97;;
12369;SDS011;6249;52.128;9.986;2022-07-01T19:20:11;9.37;;;7.00;;
12369;SDS011;6249;52.128;9.986;2022-07-01T19:23:31;14.70;;;7.83;;
12369;SDS011;6249;52.128;9.986;2022-07-01T19:26:53;8.97;;;7.33;;
12369;SDS011;6249;52.128;9.986;2022-07-01T19:30:14;9.90;;;7.10;;
12369;SDS011;6249;52.128;9.986;2022-07-01T19:33:37;8.83;;;6.80;;
12369;SDS011;6249;52.128;9.986;2022-07-01T19:37:00;11.60;;;7.50;;
12369;SDS011;6249;52.128;9.986;2022-07-01T19:40:26;12.83;;;7.90;;
12369;SDS011;6249;52.128;9.986;2022-07-01T19:43:51;9.13;;;7.50;;
12369;SDS011;6249;52.128;9.986;2022-07-01T19:47:20;9.30;;;8.20;;
12369;SDS011;6249;52.128;9.986;2022-07-01T19:50:59;11.17;;;8.07;;
12369;SDS011;6249;52.128;9.986;2022-07-01T19:55:01;12.10;;;9.10;;
12369;SDS011;6249;52.128;9.986;2022-07-01T19:58:21;10.33;;;7.90;;
12369;SDS011;6249;52.128;9.986;2022-07-01T20:01:42;11.67;;;8.57;;
12369;SDS011;6249;52.128;9.986;2022-07-01T20:05:08;12.63;;;8.17;;
12369;SDS011;6249;52.128;9.986;2022-07-01T20:08:29;11.97;;;9.47;;
12369;SDS011;6249;52.128;9.986;2022-07-01T20:11:52;10.10;;;8.60;;
12369;SDS011;6249;52.128;9.986;2022-07-01T20:15:12;10.47;;;8.10;;
12369;SDS011;6249;52.128;9.986;2022-07-01T20:18:33;11.40;;;8.30;;
12369;SDS011;6249;52.128;9.986;2022-07-01T20:21:55;9.60;;;8.60;;
12369;SDS011;6249;52.128;9.986;2022-07-01T20:25:18;14.43;;;9.17;;
12369;SDS011;6249;52.128;9.986;2022-07-01T20:28:41;13.50;;;10.00;;
12369;SDS011;6249;52.128;9.986;2022-07-01T20:32:02;11.20;;;9.57;;
12369;SDS011;6249;52.128;9.986;2022-07-01T20:35:25;10.90;;;9.80;;
12369;SDS011;6249;52.128;9.986;2022-07-01T20:38:46;12.17;;;9.40;;
12369;SDS011;6249;52.128;9.986;2022-07-01T20:42:07;12.50;;;9.50;;
12369;SDS011;6249;52.128;9.986;2022-07-01T20:45:27;15.23;;;10.53;;
12369;SDS011;6249;52.128;9.986;2022-07-01T20:48:48;12.30;;;10.53;;
12369;SDS011;6249;52.128;9.986;2022-07-01T20:52:11;13.80;;;10.43;;